sensor_id;sensor_type;location;lat;lon;timestamp;temperature;humidity
51825;DHT22;37879;52.986;6.282;2023-07-31T00:01:43;16.30;99.90
51825;DHT22;37879;52.986;6.282;2023-07-31T00:04:09;16.30;99.90
51825;DHT22;37879;52.986;6.282;2023-07-31T00:06:34;16.20;99.90
51825;DHT22;37879;52.986;6.282;2023-07-31T00:09:00;16.20;99.90
51825;DHT22;37879;52.986;6.282;2023-07-31T00:11:26;16.20;99.90
51825;DHT22;37879;52.986;6.282;2023-07-31T00:13:53;16.20;99.90
51825;DHT22;37879;52.986;6.282;2023-07-31T00:16:19;16.10;99.90
51825;DHT22;37879;52.986;6.282;2023-07-31T00:18:44;16.10;99.90
51825;DHT22;37879;52.986;6.282;2023-07-31T00:21:10;16.10;99.90
51825;DHT22;37879;52.986;6.282;2023-07-31T00:23:36;16.00;99.90
51825;DHT22;37879;52.986;6.282;2023-07-31T00:26:01;16.00;99.90
51825;DHT22;37879;52.986;6.282;2023-07-31T00:28:27;16.00;99.90
51825;DHT22;37879;52.986;6.282;2023-07-31T00:30:54;16.00;99.90
51825;DHT22;37879;52.986;6.282;2023-07-31T00:33:19;16.00;99.90
51825;DHT22;37879;52.986;6.282;2023-07-31T00:35:45;16.00;99.90
51825;DHT22;37879;52.986;6.282;2023-07-31T00:38:11;15.90;99.90
51825;DHT22;37879;52.986;6.282;2023-07-31T00:40:37;15.90;99.90
51825;DHT22;37879;52.986;6.282;2023-07-31T00:43:03;15.90;99.90
51825;DHT22;37879;52.986;6.282;2023-07-31T00:45:29;15.90;99.90
51825;DHT22;37879;52.986;6.282;2023-07-31T00:47:56;15.90;99.90
51825;DHT22;37879;52.986;6.282;2023-07-31T00:50:24;15.90;99.90
51825;DHT22;37879;52.986;6.282;2023-07-31T00:52:50;15.90;99.90
51825;DHT22;37879;52.986;6.282;2023-07-31T00:55:16;15.90;99.90
51825;DHT22;37879;52.986;6.282;2023-07-31T00:57:42;15.90;99.90
51825;DHT22;37879;52.986;6.282;2023-07-31T01:00:08;15.90;99.90
51825;DHT22;37879;52.986;6.282;2023-07-31T01:02:35;15.90;99.90
51825;DHT22;37879;52.986;6.282;2023-07-31T01:05:01;15.90;99.90
51825;DHT22;37879;52.986;6.282;2023-07-31T01:12:33;15.80;99.90
51825;DHT22;37879;52.986;6.282;2023-07-31T01:15:07;15.90;99.90
51825;DHT22;37879;52.986;6.282;2023-07-31T01:17:36;15.80;99.90
51825;DHT22;37879;52.986;6.282;2023-07-31T01:20:05;15.80;99.90
51825;DHT22;37879;52.986;6.282;2023-07-31T01:28:15;15.80;99.90
51825;DHT22;37879;52.986;6.282;2023-07-31T01:30:47;15.80;99.90
51825;DHT22;37879;52.986;6.282;2023-07-31T01:33:15;15.80;99.90
51825;DHT22;37879;52.986;6.282;2023-07-31T01:35:44;15.80;99.90
51825;DHT22;37879;52.986;6.282;2023-07-31T01:38:10;15.80;99.90
51825;DHT22;37879;52.986;6.282;2023-07-31T01:40:36;15.70;99.90
51825;DHT22;37879;52.986;6.282;2023-07-31T01:43:02;15.80;99.90
51825;DHT22;37879;52.986;6.282;2023-07-31T01:45:27;15.70;99.90
51825;DHT22;37879;52.986;6.282;2023-07-31T01:47:53;15.80;99.90
51825;DHT22;37879;52.986;6.282;2023-07-31T01:50:19;15.80;99.90
51825;DHT22;37879;52.986;6.282;2023-07-31T01:52:44;15.80;99.90
51825;DHT22;37879;52.986;6.282;2023-07-31T01:55:10;15.80;99.90
51825;DHT22;37879;52.986;6.282;2023-07-31T01:57:36;15.80;99.90
51825;DHT22;37879;52.986;6.282;2023-07-31T02:00:03;15.80;99.90
51825;DHT22;37879;52.986;6.282;2023-07-31T02:02:28;15.80;99.90
51825;DHT22;37879;52.986;6.282;2023-07-31T02:04:54;15.80;99.90
51825;DHT22;37879;52.986;6.282;2023-07-31T02:07:20;15.70;99.90
51825;DHT22;37879;52.986;6.282;2023-07-31T02:09:45;15.80;99.90
51825;DHT22;37879;52.986;6.282;2023-07-31T02:12:13;15.70;99.90
51825;DHT22;37879;52.986;6.282;2023-07-31T02:14:40;15.80;99.90
51825;DHT22;37879;52.986;6.282;2023-07-31T02:17:06;15.80;99.90
51825;DHT22;37879;52.986;6.282;2023-07-31T02:19:31;15.70;99.90
51825;DHT22;37879;52.986;6.282;2023-07-31T02:21:57;15.80;99.90
51825;DHT22;37879;52.986;6.282;2023-07-31T02:24:24;15.80;99.90
51825;DHT22;37879;52.986;6.282;2023-07-31T02:26:50;15.70;99.90
51825;DHT22;37879;52.986;6.282;2023-07-31T02:29:16;15.70;99.90
51825;DHT22;37879;52.986;6.282;2023-07-31T02:31:41;15.80;99.90
51825;DHT22;37879;52.986;6.282;2023-07-31T02:34:07;15.80;99.90
51825;DHT22;37879;52.986;6.282;2023-07-31T02:36:33;15.80;99.90
51825;DHT22;37879;52.986;6.282;2023-07-31T02:38:58;15.80;99.90
51825;DHT22;37879;52.986;6.282;2023-07-31T02:41:24;15.80;99.90
51825;DHT22;37879;52.986;6.282;2023-07-31T02:43:49;15.80;99.90
51825;DHT22;37879;52.986;6.282;2023-07-31T02:46:15;15.80;99.90
51825;DHT22;37879;52.986;6.282;2023-07-31T02:48:40;15.80;99.90
51825;DHT22;37879;52.986;6.282;2023-07-31T02:51:06;15.80;99.90
51825;DHT22;37879;52.986;6.282;2023-07-31T02:53:32;15.80;99.90
51825;DHT22;37879;52.986;6.282;2023-07-31T02:55:57;15.80;99.90
51825;DHT22;37879;52.986;6.282;2023-07-31T02:58:23;15.80;99.90
51825;DHT22;37879;52.986;6.282;2023-07-31T03:00:49;15.80;99.90
51825;DHT22;37879;52.986;6.282;2023-07-31T03:03:14;15.80;99.90
51825;DHT22;37879;52.986;6.282;2023-07-31T03:05:40;15.80;99.90
51825;DHT22;37879;52.986;6.282;2023-07-31T03:08:06;15.80;99.90
51825;DHT22;37879;52.986;6.282;2023-07-31T03:10:31;15.90;99.90
51825;DHT22;37879;52.986;6.282;2023-07-31T03:12:57;15.90;99.90
51825;DHT22;37879;52.986;6.282;2023-07-31T03:15:22;15.90;99.90
51825;DHT22;37879;52.986;6.282;2023-07-31T03:17:48;15.90;99.90
51825;DHT22;37879;52.986;6.282;2023-07-31T03:20:14;15.90;99.90
51825;DHT22;37879;52.986;6.282;2023-07-31T03:22:39;16.00;99.90
51825;DHT22;37879;52.986;6.282;2023-07-31T03:25:05;15.90;99.90
51825;DHT22;37879;52.986;6.282;2023-07-31T03:27:31;15.90;99.90
51825;DHT22;37879;52.986;6.282;2023-07-31T03:29:57;15.90;99.90
51825;DHT22;37879;52.986;6.282;2023-07-31T03:32:23;15.90;99.90
51825;DHT22;37879;52.986;6.282;2023-07-31T03:34:49;15.80;99.90
51825;DHT22;37879;52.986;6.282;2023-07-31T03:37:15;15.90;99.90
51825;DHT22;37879;52.986;6.282;2023-07-31T03:39:40;16.00;99.90
51825;DHT22;37879;52.986;6.282;2023-07-31T03:42:06;15.80;99.90
51825;DHT22;37879;52.986;6.282;2023-07-31T03:44:32;15.80;99.90
51825;DHT22;37879;52.986;6.282;2023-07-31T03:46:57;15.80;99.90
51825;DHT22;37879;52.986;6.282;2023-07-31T03:49:23;15.80;99.90
51825;DHT22;37879;52.986;6.282;2023-07-31T03:51:49;15.80;99.90
51825;DHT22;37879;52.986;6.282;2023-07-31T03:54:15;15.80;99.90
51825;DHT22;37879;52.986;6.282;2023-07-31T03:56:41;15.80;99.90
51825;DHT22;37879;52.986;6.282;2023-07-31T03:59:06;15.80;99.90
51825;DHT22;37879;52.986;6.282;2023-07-31T04:01:32;15.80;99.90
51825;DHT22;37879;52.986;6.282;2023-07-31T04:03:58;15.80;99.90
51825;DHT22;37879;52.986;6.282;2023-07-31T04:06:23;15.80;99.90
51825;DHT22;37879;52.986;6.282;2023-07-31T04:08:49;15.80;99.90
51825;DHT22;37879;52.986;6.282;2023-07-31T04:11:15;15.80;99.90
51825;DHT22;37879;52.986;6.282;2023-07-31T04:13:40;15.80;99.90
51825;DHT22;37879;52.986;6.282;2023-07-31T04:16:06;15.80;99.90
51825;DHT22;37879;52.986;6.282;2023-07-31T04:18:32;15.80;99.90
51825;DHT22;37879;52.986;6.282;2023-07-31T04:20:58;15.90;99.90
51825;DHT22;37879;52.986;6.282;2023-07-31T04:23:25;15.80;99.90
51825;DHT22;37879;52.986;6.282;2023-07-31T04:25:50;15.80;99.90
51825;DHT22;37879;52.986;6.282;2023-07-31T04:28:16;15.70;99.90
51825;DHT22;37879;52.986;6.282;2023-07-31T04:30:42;15.70;99.90
51825;DHT22;37879;52.986;6.282;2023-07-31T04:33:07;15.70;99.90
51825;DHT22;37879;52.986;6.282;2023-07-31T04:35:33;15.70;99.90
51825;DHT22;37879;52.986;6.282;2023-07-31T04:37:59;15.70;99.90
51825;DHT22;37879;52.986;6.282;2023-07-31T04:40:25;15.70;99.90
51825;DHT22;37879;52.986;6.282;2023-07-31T04:42:50;15.80;99.90
51825;DHT22;37879;52.986;6.282;2023-07-31T04:45:16;15.80;99.90
51825;DHT22;37879;52.986;6.282;2023-07-31T04:47:42;15.80;99.90
51825;DHT22;37879;52.986;6.282;2023-07-31T04:50:08;15.80;99.90
51825;DHT22;37879;52.986;6.282;2023-07-31T04:52:34;15.80;99.90
51825;DHT22;37879;52.986;6.282;2023-07-31T04:54:59;15.80;99.90
51825;DHT22;37879;52.986;6.282;2023-07-31T04:57:25;15.90;99.90
51825;DHT22;37879;52.986;6.282;2023-07-31T04:59:51;15.90;99.90
51825;DHT22;37879;52.986;6.282;2023-07-31T05:02:16;15.90;99.90
51825;DHT22;37879;52.986;6.282;2023-07-31T05:04:42;16.00;99.90
51825;DHT22;37879;52.986;6.282;2023-07-31T05:07:08;16.00;99.90
51825;DHT22;37879;52.986;6.282;2023-07-31T05:09:33;16.00;99.90
51825;DHT22;37879;52.986;6.282;2023-07-31T05:11:59;16.00;99.90
51825;DHT22;37879;52.986;6.282;2023-07-31T05:14:26;16.00;99.90
51825;DHT22;37879;52.986;6.282;2023-07-31T05:16:51;16.10;99.90
51825;DHT22;37879;52.986;6.282;2023-07-31T05:19:17;16.10;99.90
51825;DHT22;37879;52.986;6.282;2023-07-31T05:21:43;16.10;99.90
51825;DHT22;37879;52.986;6.282;2023-07-31T05:24:10;16.20;99.90
51825;DHT22;37879;52.986;6.282;2023-07-31T05:26:36;16.20;99.90
51825;DHT22;37879;52.986;6.282;2023-07-31T05:29:01;16.20;99.90
51825;DHT22;37879;52.986;6.282;2023-07-31T05:31:27;16.20;99.90
51825;DHT22;37879;52.986;6.282;2023-07-31T05:33:53;16.30;99.90
51825;DHT22;37879;52.986;6.282;2023-07-31T05:36:19;16.30;99.90
51825;DHT22;37879;52.986;6.282;2023-07-31T05:38:44;16.20;99.90
51825;DHT22;37879;52.986;6.282;2023-07-31T05:41:12;16.40;99.90
51825;DHT22;37879;52.986;6.282;2023-07-31T05:43:38;16.40;99.90
51825;DHT22;37879;52.986;6.282;2023-07-31T05:46:03;16.50;99.90
51825;DHT22;37879;52.986;6.282;2023-07-31T05:48:29;16.50;99.90
51825;DHT22;37879;52.986;6.282;2023-07-31T05:50:55;16.60;99.90
51825;DHT22;37879;52.986;6.282;2023-07-31T05:53:20;16.60;99.90
51825;DHT22;37879;52.986;6.282;2023-07-31T05:55:46;16.60;99.90
51825;DHT22;37879;52.986;6.282;2023-07-31T05:58:12;16.60;99.90
51825;DHT22;37879;52.986;6.282;2023-07-31T06:00:37;16.70;99.90
51825;DHT22;37879;52.986;6.282;2023-07-31T06:03:03;16.70;99.90
51825;DHT22;37879;52.986;6.282;2023-07-31T06:05:29;16.80;99.90
51825;DHT22;37879;52.986;6.282;2023-07-31T06:07:56;16.80;99.90
51825;DHT22;37879;52.986;6.282;2023-07-31T06:10:22;16.90;99.90
51825;DHT22;37879;52.986;6.282;2023-07-31T06:12:48;16.90;99.90
51825;DHT22;37879;52.986;6.282;2023-07-31T06:15:14;16.90;99.90
51825;DHT22;37879;52.986;6.282;2023-07-31T06:17:39;16.90;99.90
51825;DHT22;37879;52.986;6.282;2023-07-31T06:20:06;17.00;99.90
51825;DHT22;37879;52.986;6.282;2023-07-31T06:22:32;17.00;99.90
51825;DHT22;37879;52.986;6.282;2023-07-31T06:24:58;17.00;99.90
51825;DHT22;37879;52.986;6.282;2023-07-31T06:27:24;17.10;99.90
51825;DHT22;37879;52.986;6.282;2023-07-31T06:29:49;17.10;99.90
51825;DHT22;37879;52.986;6.282;2023-07-31T06:32:15;17.20;99.90
51825;DHT22;37879;52.986;6.282;2023-07-31T06:34:41;17.20;99.90
51825;DHT22;37879;52.986;6.282;2023-07-31T06:37:06;17.30;99.90
51825;DHT22;37879;52.986;6.282;2023-07-31T06:39:32;17.40;99.90
51825;DHT22;37879;52.986;6.282;2023-07-31T06:41:58;17.50;99.90
51825;DHT22;37879;52.986;6.282;2023-07-31T06:44:23;17.60;99.90
51825;DHT22;37879;52.986;6.282;2023-07-31T06:46:49;17.60;99.90
51825;DHT22;37879;52.986;6.282;2023-07-31T06:49:15;17.60;99.90
51825;DHT22;37879;52.986;6.282;2023-07-31T06:51:41;17.60;99.90
51825;DHT22;37879;52.986;6.282;2023-07-31T06:54:08;17.60;99.90
51825;DHT22;37879;52.986;6.282;2023-07-31T06:56:33;17.50;99.90
51825;DHT22;37879;52.986;6.282;2023-07-31T06:58:59;17.50;99.90
51825;DHT22;37879;52.986;6.282;2023-07-31T07:01:25;17.50;99.90
51825;DHT22;37879;52.986;6.282;2023-07-31T07:03:51;17.40;99.90
51825;DHT22;37879;52.986;6.282;2023-07-31T07:06:17;17.40;99.90
51825;DHT22;37879;52.986;6.282;2023-07-31T07:08:43;17.30;99.90
51825;DHT22;37879;52.986;6.282;2023-07-31T07:11:09;17.30;99.90
51825;DHT22;37879;52.986;6.282;2023-07-31T07:13:34;17.20;99.90
51825;DHT22;37879;52.986;6.282;2023-07-31T07:16:00;17.20;99.90
51825;DHT22;37879;52.986;6.282;2023-07-31T07:18:26;17.20;99.90
51825;DHT22;37879;52.986;6.282;2023-07-31T07:20:52;17.10;99.90
51825;DHT22;37879;52.986;6.282;2023-07-31T07:23:19;17.10;99.90
51825;DHT22;37879;52.986;6.282;2023-07-31T07:25:45;17.20;99.90
51825;DHT22;37879;52.986;6.282;2023-07-31T07:28:11;17.20;99.90
51825;DHT22;37879;52.986;6.282;2023-07-31T07:30:37;17.10;99.90
51825;DHT22;37879;52.986;6.282;2023-07-31T07:33:03;17.10;99.90
51825;DHT22;37879;52.986;6.282;2023-07-31T07:35:29;17.10;99.90
51825;DHT22;37879;52.986;6.282;2023-07-31T07:37:55;17.10;99.90
51825;DHT22;37879;52.986;6.282;2023-07-31T07:40:21;17.10;99.90
51825;DHT22;37879;52.986;6.282;2023-07-31T07:42:47;17.20;99.90
51825;DHT22;37879;52.986;6.282;2023-07-31T07:45:13;17.10;99.90
51825;DHT22;37879;52.986;6.282;2023-07-31T07:47:40;17.10;99.90
51825;DHT22;37879;52.986;6.282;2023-07-31T07:50:06;17.10;99.90
51825;DHT22;37879;52.986;6.282;2023-07-31T07:52:32;17.10;99.90
51825;DHT22;37879;52.986;6.282;2023-07-31T07:54:58;17.10;99.90
51825;DHT22;37879;52.986;6.282;2023-07-31T07:57:23;17.10;99.90
51825;DHT22;37879;52.986;6.282;2023-07-31T07:59:49;17.00;99.90
51825;DHT22;37879;52.986;6.282;2023-07-31T08:02:15;17.00;99.90
51825;DHT22;37879;52.986;6.282;2023-07-31T08:04:40;17.10;99.90
51825;DHT22;37879;52.986;6.282;2023-07-31T08:07:06;17.10;99.90
51825;DHT22;37879;52.986;6.282;2023-07-31T08:09:32;17.10;99.90
51825;DHT22;37879;52.986;6.282;2023-07-31T08:11:57;17.10;99.90
51825;DHT22;37879;52.986;6.282;2023-07-31T08:14:27;17.20;99.90
51825;DHT22;37879;52.986;6.282;2023-07-31T08:16:53;17.20;99.90
51825;DHT22;37879;52.986;6.282;2023-07-31T08:19:19;17.30;99.90
51825;DHT22;37879;52.986;6.282;2023-07-31T08:21:44;17.30;99.90
51825;DHT22;37879;52.986;6.282;2023-07-31T08:24:10;17.40;99.90
51825;DHT22;37879;52.986;6.282;2023-07-31T08:26:36;17.50;99.90
51825;DHT22;37879;52.986;6.282;2023-07-31T08:29:02;17.60;99.90
51825;DHT22;37879;52.986;6.282;2023-07-31T08:31:27;17.60;99.90
51825;DHT22;37879;52.986;6.282;2023-07-31T08:33:55;17.60;99.90
51825;DHT22;37879;52.986;6.282;2023-07-31T08:36:21;17.60;99.90
51825;DHT22;37879;52.986;6.282;2023-07-31T08:38:46;17.60;99.90
51825;DHT22;37879;52.986;6.282;2023-07-31T08:41:12;17.70;99.90
51825;DHT22;37879;52.986;6.282;2023-07-31T08:43:39;17.70;99.90
51825;DHT22;37879;52.986;6.282;2023-07-31T08:46:04;17.80;99.90
51825;DHT22;37879;52.986;6.282;2023-07-31T08:48:31;17.90;99.90
51825;DHT22;37879;52.986;6.282;2023-07-31T08:50:57;18.00;99.90
51825;DHT22;37879;52.986;6.282;2023-07-31T08:53:23;18.10;99.90
51825;DHT22;37879;52.986;6.282;2023-07-31T08:55:49;18.20;99.90
51825;DHT22;37879;52.986;6.282;2023-07-31T08:58:18;18.30;99.90
51825;DHT22;37879;52.986;6.282;2023-07-31T09:00:46;18.40;99.90
51825;DHT22;37879;52.986;6.282;2023-07-31T09:03:17;18.50;99.90
51825;DHT22;37879;52.986;6.282;2023-07-31T09:05:45;18.50;99.90
51825;DHT22;37879;52.986;6.282;2023-07-31T09:08:12;18.50;99.90
51825;DHT22;37879;52.986;6.282;2023-07-31T09:10:45;18.40;99.90
51825;DHT22;37879;52.986;6.282;2023-07-31T09:13:12;18.40;99.90
51825;DHT22;37879;52.986;6.282;2023-07-31T09:15:39;18.30;99.90
51825;DHT22;37879;52.986;6.282;2023-07-31T09:18:06;18.30;99.90
51825;DHT22;37879;52.986;6.282;2023-07-31T09:20:33;18.30;99.90
51825;DHT22;37879;52.986;6.282;2023-07-31T09:23:10;18.40;99.90
51825;DHT22;37879;52.986;6.282;2023-07-31T09:25:36;18.30;99.90
51825;DHT22;37879;52.986;6.282;2023-07-31T09:28:04;18.40;99.90
51825;DHT22;37879;52.986;6.282;2023-07-31T09:30:31;18.40;99.90
51825;DHT22;37879;52.986;6.282;2023-07-31T09:33:04;18.40;99.90
51825;DHT22;37879;52.986;6.282;2023-07-31T09:35:34;18.40;99.90
51825;DHT22;37879;52.986;6.282;2023-07-31T09:38:04;18.40;99.90
51825;DHT22;37879;52.986;6.282;2023-07-31T09:40:34;18.30;99.90
51825;DHT22;37879;52.986;6.282;2023-07-31T09:43:02;18.40;99.90
51825;DHT22;37879;52.986;6.282;2023-07-31T09:45:28;18.30;99.90
51825;DHT22;37879;52.986;6.282;2023-07-31T09:47:55;18.30;99.90
51825;DHT22;37879;52.986;6.282;2023-07-31T09:50:23;18.40;99.90
51825;DHT22;37879;52.986;6.282;2023-07-31T09:52:50;18.40;99.90
51825;DHT22;37879;52.986;6.282;2023-07-31T09:55:16;18.40;99.90
51825;DHT22;37879;52.986;6.282;2023-07-31T09:57:45;18.40;99.90
51825;DHT22;37879;52.986;6.282;2023-07-31T10:00:12;18.40;99.90
51825;DHT22;37879;52.986;6.282;2023-07-31T10:02:39;18.50;99.90
51825;DHT22;37879;52.986;6.282;2023-07-31T10:05:06;18.50;99.90
51825;DHT22;37879;52.986;6.282;2023-07-31T10:07:39;18.50;99.90
51825;DHT22;37879;52.986;6.282;2023-07-31T10:10:08;18.60;99.90
51825;DHT22;37879;52.986;6.282;2023-07-31T10:12:37;18.70;99.90
51825;DHT22;37879;52.986;6.282;2023-07-31T10:15:04;18.80;99.90
51825;DHT22;37879;52.986;6.282;2023-07-31T10:17:30;18.90;99.90
51825;DHT22;37879;52.986;6.282;2023-07-31T10:19:59;18.90;99.90
51825;DHT22;37879;52.986;6.282;2023-07-31T10:22:27;19.00;99.90
51825;DHT22;37879;52.986;6.282;2023-07-31T10:24:54;19.00;99.90
51825;DHT22;37879;52.986;6.282;2023-07-31T10:27:20;19.00;99.90
51825;DHT22;37879;52.986;6.282;2023-07-31T10:29:47;19.00;99.90
51825;DHT22;37879;52.986;6.282;2023-07-31T10:32:14;19.10;99.90
51825;DHT22;37879;52.986;6.282;2023-07-31T10:34:41;19.10;99.90
51825;DHT22;37879;52.986;6.282;2023-07-31T10:40:06;19.10;99.90
51825;DHT22;37879;52.986;6.282;2023-07-31T10:44:59;19.30;99.90
51825;DHT22;37879;52.986;6.282;2023-07-31T10:47:25;19.30;99.90
51825;DHT22;37879;52.986;6.282;2023-07-31T10:49:50;19.30;99.90
51825;DHT22;37879;52.986;6.282;2023-07-31T10:52:20;19.30;99.90
51825;DHT22;37879;52.986;6.282;2023-07-31T10:54:49;19.30;99.90
51825;DHT22;37879;52.986;6.282;2023-07-31T10:57:20;19.40;99.90
51825;DHT22;37879;52.986;6.282;2023-07-31T10:59:46;19.50;99.90
51825;DHT22;37879;52.986;6.282;2023-07-31T11:02:24;19.60;99.90
51825;DHT22;37879;52.986;6.282;2023-07-31T11:05:06;19.80;99.90
51825;DHT22;37879;52.986;6.282;2023-07-31T11:07:49;19.90;99.90
51825;DHT22;37879;52.986;6.282;2023-07-31T11:10:18;20.00;99.90
51825;DHT22;37879;52.986;6.282;2023-07-31T11:12:45;20.00;99.90
51825;DHT22;37879;52.986;6.282;2023-07-31T11:15:12;19.90;99.90
51825;DHT22;37879;52.986;6.282;2023-07-31T11:17:40;19.80;99.90
51825;DHT22;37879;52.986;6.282;2023-07-31T11:20:07;19.60;99.90
51825;DHT22;37879;52.986;6.282;2023-07-31T11:22:35;19.40;99.90
51825;DHT22;37879;52.986;6.282;2023-07-31T11:25:03;19.30;99.90
51825;DHT22;37879;52.986;6.282;2023-07-31T11:27:29;19.20;99.90
51825;DHT22;37879;52.986;6.282;2023-07-31T11:30:02;19.10;99.90
51825;DHT22;37879;52.986;6.282;2023-07-31T11:32:27;19.20;99.90
51825;DHT22;37879;52.986;6.282;2023-07-31T11:34:54;19.20;99.90
51825;DHT22;37879;52.986;6.282;2023-07-31T11:37:20;19.10;99.90
51825;DHT22;37879;52.986;6.282;2023-07-31T11:40:01;19.10;99.90
51825;DHT22;37879;52.986;6.282;2023-07-31T11:42:27;19.20;99.90
51825;DHT22;37879;52.986;6.282;2023-07-31T11:44:53;19.30;99.90
51825;DHT22;37879;52.986;6.282;2023-07-31T11:47:19;19.40;99.90
51825;DHT22;37879;52.986;6.282;2023-07-31T11:49:45;19.40;99.90
51825;DHT22;37879;52.986;6.282;2023-07-31T11:52:12;19.40;99.90
51825;DHT22;37879;52.986;6.282;2023-07-31T11:54:38;19.30;99.90
51825;DHT22;37879;52.986;6.282;2023-07-31T11:57:04;19.30;99.90
51825;DHT22;37879;52.986;6.282;2023-07-31T11:59:31;19.30;99.90
51825;DHT22;37879;52.986;6.282;2023-07-31T12:01:57;19.20;99.90
51825;DHT22;37879;52.986;6.282;2023-07-31T12:04:24;19.20;99.90
51825;DHT22;37879;52.986;6.282;2023-07-31T12:06:53;19.10;99.90
51825;DHT22;37879;52.986;6.282;2023-07-31T12:09:18;19.00;99.90
51825;DHT22;37879;52.986;6.282;2023-07-31T12:11:45;19.00;99.90
51825;DHT22;37879;52.986;6.282;2023-07-31T12:14:21;19.00;99.90
51825;DHT22;37879;52.986;6.282;2023-07-31T12:16:55;19.00;99.90
51825;DHT22;37879;52.986;6.282;2023-07-31T12:19:22;19.00;99.90
51825;DHT22;37879;52.986;6.282;2023-07-31T12:21:47;19.00;99.90
51825;DHT22;37879;52.986;6.282;2023-07-31T12:24:13;19.10;99.90
51825;DHT22;37879;52.986;6.282;2023-07-31T12:26:39;19.10;99.90
51825;DHT22;37879;52.986;6.282;2023-07-31T12:29:07;19.10;99.90
51825;DHT22;37879;52.986;6.282;2023-07-31T12:31:33;19.10;99.90
51825;DHT22;37879;52.986;6.282;2023-07-31T12:33:59;19.10;99.90
51825;DHT22;37879;52.986;6.282;2023-07-31T12:36:25;19.10;99.90
51825;DHT22;37879;52.986;6.282;2023-07-31T12:38:52;19.10;99.90
51825;DHT22;37879;52.986;6.282;2023-07-31T12:41:18;19.10;99.90
51825;DHT22;37879;52.986;6.282;2023-07-31T12:43:45;19.10;99.90
51825;DHT22;37879;52.986;6.282;2023-07-31T12:46:11;19.10;99.90
51825;DHT22;37879;52.986;6.282;2023-07-31T12:48:38;19.30;99.90
51825;DHT22;37879;52.986;6.282;2023-07-31T12:51:04;19.20;99.90
51825;DHT22;37879;52.986;6.282;2023-07-31T12:53:30;19.40;99.90
51825;DHT22;37879;52.986;6.282;2023-07-31T12:55:56;19.50;99.90
51825;DHT22;37879;52.986;6.282;2023-07-31T12:58:22;19.60;99.90
51825;DHT22;37879;52.986;6.282;2023-07-31T13:00:48;19.70;99.90
51825;DHT22;37879;52.986;6.282;2023-07-31T13:03:13;19.70;99.90
51825;DHT22;37879;52.986;6.282;2023-07-31T13:05:39;19.80;99.90
51825;DHT22;37879;52.986;6.282;2023-07-31T13:08:05;20.00;99.90
51825;DHT22;37879;52.986;6.282;2023-07-31T13:10:30;20.00;99.90
51825;DHT22;37879;52.986;6.282;2023-07-31T13:12:56;20.00;99.90
51825;DHT22;37879;52.986;6.282;2023-07-31T13:15:22;20.00;99.90
51825;DHT22;37879;52.986;6.282;2023-07-31T13:17:48;20.00;99.90
51825;DHT22;37879;52.986;6.282;2023-07-31T13:20:14;20.00;99.90
51825;DHT22;37879;52.986;6.282;2023-07-31T13:22:40;19.90;99.90
51825;DHT22;37879;52.986;6.282;2023-07-31T13:25:06;19.90;99.90
51825;DHT22;37879;52.986;6.282;2023-07-31T13:27:32;19.90;99.90
51825;DHT22;37879;52.986;6.282;2023-07-31T13:29:57;19.90;99.90
51825;DHT22;37879;52.986;6.282;2023-07-31T13:32:23;19.80;99.90
51825;DHT22;37879;52.986;6.282;2023-07-31T13:34:49;19.80;99.90
51825;DHT22;37879;52.986;6.282;2023-07-31T13:37:15;19.90;99.90
51825;DHT22;37879;52.986;6.282;2023-07-31T13:39:42;19.90;99.90
51825;DHT22;37879;52.986;6.282;2023-07-31T13:42:08;20.00;99.90
51825;DHT22;37879;52.986;6.282;2023-07-31T13:44:41;20.00;99.90
51825;DHT22;37879;52.986;6.282;2023-07-31T13:47:07;20.00;99.90
51825;DHT22;37879;52.986;6.282;2023-07-31T13:49:33;20.10;99.90
51825;DHT22;37879;52.986;6.282;2023-07-31T13:52:00;20.10;99.90
51825;DHT22;37879;52.986;6.282;2023-07-31T13:54:25;20.10;99.90
51825;DHT22;37879;52.986;6.282;2023-07-31T13:56:54;20.60;99.90
51825;DHT22;37879;52.986;6.282;2023-07-31T13:59:20;20.10;99.90
51825;DHT22;37879;52.986;6.282;2023-07-31T14:01:46;20.20;99.90
51825;DHT22;37879;52.986;6.282;2023-07-31T14:04:12;20.30;99.90
51825;DHT22;37879;52.986;6.282;2023-07-31T14:06:38;20.40;99.90
51825;DHT22;37879;52.986;6.282;2023-07-31T14:09:04;20.40;99.90
51825;DHT22;37879;52.986;6.282;2023-07-31T14:11:31;20.40;99.90
51825;DHT22;37879;52.986;6.282;2023-07-31T14:13:57;20.30;99.90
51825;DHT22;37879;52.986;6.282;2023-07-31T14:16:23;20.40;99.90
51825;DHT22;37879;52.986;6.282;2023-07-31T14:18:48;20.40;99.90
51825;DHT22;37879;52.986;6.282;2023-07-31T14:21:14;20.40;99.90
51825;DHT22;37879;52.986;6.282;2023-07-31T14:23:40;20.40;99.90
51825;DHT22;37879;52.986;6.282;2023-07-31T14:26:06;20.30;99.90
51825;DHT22;37879;52.986;6.282;2023-07-31T14:28:32;20.30;99.90
51825;DHT22;37879;52.986;6.282;2023-07-31T14:30:58;20.30;99.90
51825;DHT22;37879;52.986;6.282;2023-07-31T14:33:23;20.20;99.90
51825;DHT22;37879;52.986;6.282;2023-07-31T14:35:49;20.20;99.90
51825;DHT22;37879;52.986;6.282;2023-07-31T14:38:15;20.20;99.90
51825;DHT22;37879;52.986;6.282;2023-07-31T14:40:41;20.10;99.90
51825;DHT22;37879;52.986;6.282;2023-07-31T14:43:07;20.00;99.90
51825;DHT22;37879;52.986;6.282;2023-07-31T14:45:33;20.00;99.90
51825;DHT22;37879;52.986;6.282;2023-07-31T14:47:59;19.90;99.90
51825;DHT22;37879;52.986;6.282;2023-07-31T14:50:25;19.90;99.90
51825;DHT22;37879;52.986;6.282;2023-07-31T14:52:51;20.00;99.90
51825;DHT22;37879;52.986;6.282;2023-07-31T14:55:18;19.90;99.90
51825;DHT22;37879;52.986;6.282;2023-07-31T14:57:43;19.90;99.90
51825;DHT22;37879;52.986;6.282;2023-07-31T15:00:09;19.90;99.90
51825;DHT22;37879;52.986;6.282;2023-07-31T15:02:39;19.90;99.90
51825;DHT22;37879;52.986;6.282;2023-07-31T15:05:05;19.90;99.90
51825;DHT22;37879;52.986;6.282;2023-07-31T15:07:32;19.80;99.90
51825;DHT22;37879;52.986;6.282;2023-07-31T15:09:57;19.80;99.90
51825;DHT22;37879;52.986;6.282;2023-07-31T15:12:23;19.80;99.90
51825;DHT22;37879;52.986;6.282;2023-07-31T15:14:49;19.80;99.90
51825;DHT22;37879;52.986;6.282;2023-07-31T15:17:15;19.90;99.90
51825;DHT22;37879;52.986;6.282;2023-07-31T15:19:41;19.70;99.90
51825;DHT22;37879;52.986;6.282;2023-07-31T15:22:07;19.70;99.90
51825;DHT22;37879;52.986;6.282;2023-07-31T15:24:33;19.70;99.90
51825;DHT22;37879;52.986;6.282;2023-07-31T15:26:59;19.60;99.90
51825;DHT22;37879;52.986;6.282;2023-07-31T15:29:27;19.70;99.90
51825;DHT22;37879;52.986;6.282;2023-07-31T15:31:53;19.60;99.90
51825;DHT22;37879;52.986;6.282;2023-07-31T15:34:18;19.70;99.90
51825;DHT22;37879;52.986;6.282;2023-07-31T15:36:44;19.70;99.90
51825;DHT22;37879;52.986;6.282;2023-07-31T15:39:10;19.70;99.90
51825;DHT22;37879;52.986;6.282;2023-07-31T15:41:37;19.70;99.90